sensor_id;sensor_type;location;lat;lon;timestamp;pressure;altitude;pressure_sealevel;temperature;humidity
1736;BME280;865;53.672;10.250;2022-11-15T00:00:47;100786.94;;;5.16;100.00
1736;BME280;865;53.672;10.250;2022-11-15T00:03:15;100795.56;;;5.15;100.00
1736;BME280;865;53.672;10.250;2022-11-15T00:05:41;100786.06;;;5.14;100.00
1736;BME280;865;53.672;10.250;2022-11-15T00:08:08;100787.81;;;5.17;100.00
1736;BME280;865;53.672;10.250;2022-11-15T00:10:34;100792.13;;;5.09;100.00
1736;BME280;865;53.672;10.250;2022-11-15T00:13:08;100790.38;;;5.06;100.00
1736;BME280;865;53.672;10.250;2022-11-15T00:15:38;100780.88;;;5.08;100.00
1736;BME280;865;53.672;10.250;2022-11-15T00:18:06;100787.78;;;5.08;100.00
1736;BME280;865;53.672;10.250;2022-11-15T00:20:35;100784.34;;;5.10;100.00
1736;BME280;865;53.672;10.250;2022-11-15T00:23:03;100774.88;;;5.11;100.00
1736;BME280;865;53.672;10.250;2022-11-15T00:25:29;100773.13;;;5.05;100.00
1736;BME280;865;53.672;10.250;2022-11-15T00:27:56;100775.69;;;5.05;100.00
1736;BME280;865;53.672;10.250;2022-11-15T00:30:23;100782.56;;;4.95;100.00
1736;BME280;865;53.672;10.250;2022-11-15T00:32:50;100776.53;;;4.96;100.00
1736;BME280;865;53.672;10.250;2022-11-15T00:35:17;100768.75;;;4.87;100.00
1736;BME280;865;53.672;10.250;2022-11-15T00:37:43;100786.03;;;4.94;100.00
1736;BME280;865;53.672;10.250;2022-11-15T00:40:10;100777.41;;;4.92;100.00
1736;BME280;865;53.672;10.250;2022-11-15T00:42:39;100780.00;;;4.95;100.00
1736;BME280;865;53.672;10.250;2022-11-15T00:45:05;100784.28;;;4.96;100.00
1736;BME280;865;53.672;10.250;2022-11-15T00:47:32;100778.25;;;4.91;100.00
1736;BME280;865;53.672;10.250;2022-11-15T00:49:58;100787.75;;;4.95;100.00
1736;BME280;865;53.672;10.250;2022-11-15T00:52:24;100789.47;;;4.92;100.00
1736;BME280;865;53.672;10.250;2022-11-15T00:54:51;100779.97;;;4.89;100.00
1736;BME280;865;53.672;10.250;2022-11-15T00:57:17;100781.69;;;4.92;100.00
1736;BME280;865;53.672;10.250;2022-11-15T00:59:43;100777.31;;;4.75;100.00
1736;BME280;865;53.672;10.250;2022-11-15T01:02:10;100777.31;;;4.75;100.00
1736;BME280;865;53.672;10.250;2022-11-15T01:04:36;100775.63;;;4.76;100.00
1736;BME280;865;53.672;10.250;2022-11-15T01:07:02;100772.19;;;4.80;100.00
1736;BME280;865;53.672;10.250;2022-11-15T01:09:29;100771.28;;;4.78;100.00
1736;BME280;865;53.672;10.250;2022-11-15T01:11:55;100777.31;;;4.71;100.00
1736;BME280;865;53.672;10.250;2022-11-15T01:14:21;100775.63;;;4.79;100.00
1736;BME280;865;53.672;10.250;2022-11-15T01:16:50;100767.88;;;4.82;100.00
1736;BME280;865;53.672;10.250;2022-11-15T01:19:17;100766.97;;;4.78;100.00
1736;BME280;865;53.672;10.250;2022-11-15T01:21:43;100767.00;;;4.80;100.00
1736;BME280;865;53.672;10.250;2022-11-15T01:24:13;100757.53;;;4.80;100.00
1736;BME280;865;53.672;10.250;2022-11-15T01:26:39;100756.63;;;4.71;100.00
1736;BME280;865;53.672;10.250;2022-11-15T01:29:05;100758.38;;;4.73;100.00
1736;BME280;865;53.672;10.250;2022-11-15T01:31:32;100755.75;;;4.69;100.00
1736;BME280;865;53.672;10.250;2022-11-15T01:33:58;100754.91;;;4.71;100.00
1736;BME280;865;53.672;10.250;2022-11-15T01:36:24;100748.88;;;4.71;100.00
1736;BME280;865;53.672;10.250;2022-11-15T01:38:55;100745.47;;;4.73;100.00
1736;BME280;865;53.672;10.250;2022-11-15T01:41:24;100745.47;;;4.73;100.00
1736;BME280;865;53.672;10.250;2022-11-15T01:43:56;100751.44;;;4.65;100.00
1736;BME280;865;53.672;10.250;2022-11-15T01:46:33;100749.72;;;4.65;100.00
1736;BME280;865;53.672;10.250;2022-11-15T01:49:05;100743.66;;;4.60;100.00
1736;BME280;865;53.672;10.250;2022-11-15T01:51:37;100746.25;;;4.62;100.00
1736;BME280;865;53.672;10.250;2022-11-15T01:54:07;100740.19;;;4.53;100.00
1736;BME280;865;53.672;10.250;2022-11-15T01:56:39;100741.03;;;4.46;100.00
1736;BME280;865;53.672;10.250;2022-11-15T01:59:09;100737.56;;;4.47;100.00
1736;BME280;865;53.672;10.250;2022-11-15T02:01:37;100730.69;;;4.46;100.00
1736;BME280;865;53.672;10.250;2022-11-15T02:04:05;100737.56;;;4.44;100.00
1736;BME280;865;53.672;10.250;2022-11-15T02:06:34;100722.06;;;4.41;100.00
1736;BME280;865;53.672;10.250;2022-11-15T02:09:02;100722.03;;;4.35;100.00
1736;BME280;865;53.672;10.250;2022-11-15T02:11:28;100728.00;;;4.29;100.00
1736;BME280;865;53.672;10.250;2022-11-15T02:13:56;100716.78;;;4.24;100.00
1736;BME280;865;53.672;10.250;2022-11-15T02:16:29;100708.19;;;4.24;100.00
1736;BME280;865;53.672;10.250;2022-11-15T02:25:13;100708.16;;;4.18;100.00
1736;BME280;865;53.672;10.250;2022-11-15T02:35:45;100707.28;;;4.17;100.00
1736;BME280;865;53.672;10.250;2022-11-15T02:41:13;100713.28;;;4.15;100.00
1736;BME280;865;53.672;10.250;2022-11-15T02:43:54;100710.69;;;4.13;100.00
1736;BME280;865;53.672;10.250;2022-11-15T02:49:25;100704.63;;;4.03;100.00
1736;BME280;865;53.672;10.250;2022-11-15T02:51:55;100705.44;;;3.96;100.00
1736;BME280;865;53.672;10.250;2022-11-15T02:54:24;100704.56;;;3.94;100.00
1736;BME280;865;53.672;10.250;2022-11-15T02:56:53;100708.00;;;3.93;100.00
1736;BME280;865;53.672;10.250;2022-11-15T03:05:15;100713.09;;;3.81;100.00
1736;BME280;865;53.672;10.250;2022-11-15T03:13:21;100718.19;;;3.76;100.00
1736;BME280;865;53.672;10.250;2022-11-15T03:16:03;100710.50;;;3.82;100.00
1736;BME280;865;53.672;10.250;2022-11-15T03:18:36;100708.66;;;3.68;100.00
1736;BME280;865;53.672;10.250;2022-11-15T03:21:05;100694.03;;;3.65;100.00
1736;BME280;865;53.672;10.250;2022-11-15T03:23:33;100696.63;;;3.68;100.00
1736;BME280;865;53.672;10.250;2022-11-15T03:26:01;100700.00;;;3.59;100.00
1736;BME280;865;53.672;10.250;2022-11-15T03:28:37;100706.81;;;3.50;100.00
1736;BME280;865;53.672;10.250;2022-11-15T03:31:05;100710.25;;;3.49;100.00
1736;BME280;865;53.672;10.250;2022-11-15T03:33:53;100706.81;;;3.48;100.00
1736;BME280;865;53.672;10.250;2022-11-15T03:36:22;100704.28;;;3.57;100.00
1736;BME280;865;53.672;10.250;2022-11-15T03:38:53;100706.00;;;3.55;100.00
1736;BME280;865;53.672;10.250;2022-11-15T03:41:28;100716.31;;;3.55;100.00
1736;BME280;865;53.672;10.250;2022-11-15T03:46:38;100700.84;;;3.55;100.00
1736;BME280;865;53.672;10.250;2022-11-15T03:49:33;100704.25;;;3.53;100.00
1736;BME280;865;53.672;10.250;2022-11-15T03:52:01;100698.19;;;3.46;100.00
1736;BME280;865;53.672;10.250;2022-11-15T03:54:28;100696.50;;;3.48;100.00
1736;BME280;865;53.672;10.250;2022-11-15T03:56:55;100700.81;;;3.52;100.00
1736;BME280;865;53.672;10.250;2022-11-15T03:59:22;100697.34;;;3.50;100.00
1736;BME280;865;53.672;10.250;2022-11-15T04:01:48;100682.78;;;3.55;100.00
1736;BME280;865;53.672;10.250;2022-11-15T04:04:14;100692.22;;;3.53;100.00
1736;BME280;865;53.672;10.250;2022-11-15T04:06:41;100693.91;;;3.48;100.00
1736;BME280;865;53.672;10.250;2022-11-15T04:09:07;100697.31;;;3.46;100.00
1736;BME280;865;53.672;10.250;2022-11-15T04:11:33;100702.53;;;3.53;100.00
1736;BME280;865;53.672;10.250;2022-11-15T04:14:00;100704.28;;;3.56;100.00
1736;BME280;865;53.672;10.250;2022-11-15T04:16:26;100699.09;;;3.51;100.00
1736;BME280;865;53.672;10.250;2022-11-15T04:18:52;100699.03;;;3.47;100.00
1736;BME280;865;53.672;10.250;2022-11-15T04:21:37;100700.63;;;3.31;100.00
1736;BME280;865;53.672;10.250;2022-11-15T04:24:22;100701.50;;;3.36;100.00
1736;BME280;865;53.672;10.250;2022-11-15T04:26:49;100694.69;;;3.41;100.00
1736;BME280;865;53.672;10.250;2022-11-15T04:29:15;100699.91;;;3.47;100.00
1736;BME280;865;53.672;10.250;2022-11-15T04:32:04;100698.13;;;3.41;100.00
1736;BME280;865;53.672;10.250;2022-11-15T04:34:31;100693.69;;;3.27;100.00
1736;BME280;865;53.672;10.250;2022-11-15T04:36:58;100704.94;;;3.33;100.00
1736;BME280;865;53.672;10.250;2022-11-15T04:39:42;100704.94;;;3.35;100.00
1736;BME280;865;53.672;10.250;2022-11-15T04:42:09;100693.81;;;3.39;100.00
1736;BME280;865;53.672;10.250;2022-11-15T04:44:36;100700.59;;;3.29;100.00
1736;BME280;865;53.672;10.250;2022-11-15T04:47:02;100704.09;;;3.36;100.00
1736;BME280;865;53.672;10.250;2022-11-15T04:49:28;100697.28;;;3.42;100.00
1736;BME280;865;53.672;10.250;2022-11-15T04:51:55;100705.03;;;3.42;100.00
1736;BME280;865;53.672;10.250;2022-11-15T04:54:21;100706.78;;;3.45;100.00
1736;BME280;865;53.672;10.250;2022-11-15T04:56:48;100699.00;;;3.40;100.00
1736;BME280;865;53.672;10.250;2022-11-15T04:59:14;100709.34;;;3.45;100.00
1736;BME280;865;53.672;10.250;2022-11-15T05:01:40;100706.69;;;3.39;100.00
1736;BME280;865;53.672;10.250;2022-11-15T05:04:10;100696.34;;;3.34;100.00
1736;BME280;865;53.672;10.250;2022-11-15T05:06:50;100697.13;;;3.26;100.00
1736;BME280;865;53.672;10.250;2022-11-15T05:09:18;100698.81;;;3.22;100.00
1736;BME280;865;53.672;10.250;2022-11-15T05:11:45;100700.66;;;3.34;100.00
1736;BME280;865;53.672;10.250;2022-11-15T05:14:13;100703.25;;;3.38;100.00
1736;BME280;865;53.672;10.250;2022-11-15T05:16:40;100697.41;;;3.55;100.00
1736;BME280;865;53.672;10.250;2022-11-15T05:19:07;100691.44;;;3.63;100.00
1736;BME280;865;53.672;10.250;2022-11-15T05:21:34;100683.72;;;3.68;100.00
1736;BME280;865;53.672;10.250;2022-11-15T05:24:00;100689.75;;;3.69;100.00
1736;BME280;865;53.672;10.250;2022-11-15T05:26:27;100695.81;;;3.74;100.00
1736;BME280;865;53.672;10.250;2022-11-15T05:28:56;100696.69;;;3.77;100.00
1736;BME280;865;53.672;10.250;2022-11-15T05:31:23;100695.06;;;3.87;100.00
1736;BME280;865;53.672;10.250;2022-11-15T05:33:51;100698.56;;;3.97;100.00
1736;BME280;865;53.672;10.250;2022-11-15T05:39:03;100690.88;;;4.07;100.00
1736;BME280;865;53.672;10.250;2022-11-15T05:41:34;100688.38;;;4.17;100.00
1736;BME280;865;53.672;10.250;2022-11-15T05:44:04;100674.59;;;4.19;100.00
1736;BME280;865;53.672;10.250;2022-11-15T05:46:33;100670.31;;;4.23;100.00
1736;BME280;865;53.672;10.250;2022-11-15T05:49:00;100666.81;;;4.16;100.00
1736;BME280;865;53.672;10.250;2022-11-15T05:51:27;100671.16;;;4.22;100.00
1736;BME280;865;53.672;10.250;2022-11-15T05:53:56;100687.53;;;4.27;100.00
1736;BME280;865;53.672;10.250;2022-11-15T05:56:25;100684.16;;;4.36;100.00
1736;BME280;865;53.672;10.250;2022-11-15T05:58:53;100687.59;;;4.31;100.00
1736;BME280;865;53.672;10.250;2022-11-15T06:01:25;100697.09;;;4.42;100.00
1736;BME280;865;53.672;10.250;2022-11-15T06:03:53;100692.84;;;4.53;100.00
1736;BME280;865;53.672;10.250;2022-11-15T06:06:20;100679.03;;;4.45;100.00
1736;BME280;865;53.672;10.250;2022-11-15T06:08:46;100683.31;;;4.49;100.00
1736;BME280;865;53.672;10.250;2022-11-15T06:11:14;100686.78;;;4.51;100.00
1736;BME280;865;53.672;10.250;2022-11-15T06:13:40;100693.72;;;4.58;100.00
1736;BME280;865;53.672;10.250;2022-11-15T06:16:06;100694.59;;;4.59;100.00
1736;BME280;865;53.672;10.250;2022-11-15T06:18:33;100695.41;;;4.51;100.00
1736;BME280;865;53.672;10.250;2022-11-15T06:21:00;100708.34;;;4.57;100.00
1736;BME280;865;53.672;10.250;2022-11-15T06:23:28;100704.03;;;4.56;100.00
1736;BME280;865;53.672;10.250;2022-11-15T06:25:57;100710.06;;;4.55;100.00
1736;BME280;865;53.672;10.250;2022-11-15T06:28:24;100704.06;;;4.66;100.00
1736;BME280;865;53.672;10.250;2022-11-15T06:30:51;100711.84;;;4.72;100.00
1736;BME280;865;53.672;10.250;2022-11-15T06:33:18;100713.59;;;4.76;100.00
1736;BME280;865;53.672;10.250;2022-11-15T06:35:45;100719.63;;;4.84;100.00
1736;BME280;865;53.672;10.250;2022-11-15T06:38:11;100717.88;;;4.75;100.00
1736;BME280;865;53.672;10.250;2022-11-15T06:40:38;100718.72;;;4.73;100.00
1736;BME280;865;53.672;10.250;2022-11-15T06:43:05;100715.31;;;4.78;100.00
1736;BME280;865;53.672;10.250;2022-11-15T06:45:32;100711.03;;;4.79;100.00
1736;BME280;865;53.672;10.250;2022-11-15T06:47:58;100716.22;;;4.85;100.00
1736;BME280;865;53.672;10.250;2022-11-15T06:50:25;100723.13;;;4.91;100.00
1736;BME280;865;53.672;10.250;2022-11-15T06:52:51;100715.34;;;4.92;100.00
1736;BME280;865;53.672;10.250;2022-11-15T06:55:17;100719.66;;;4.86;100.00
1736;BME280;865;53.672;10.250;2022-11-15T06:57:49;100724.84;;;4.92;100.00
1736;BME280;865;53.672;10.250;2022-11-15T07:00:17;100728.28;;;4.95;100.00
1736;BME280;865;53.672;10.250;2022-11-15T07:02:45;100725.72;;;5.01;100.00
1736;BME280;865;53.672;10.250;2022-11-15T07:05:12;100729.16;;;4.91;100.00
1736;BME280;865;53.672;10.250;2022-11-15T07:07:39;100730.88;;;4.98;100.00
1736;BME280;865;53.672;10.250;2022-11-15T07:10:06;100729.19;;;5.00;100.00
1736;BME280;865;53.672;10.250;2022-11-15T07:12:33;100719.69;;;4.98;100.00
1736;BME280;865;53.672;10.250;2022-11-15T07:14:59;100723.13;;;4.98;100.00
1736;BME280;865;53.672;10.250;2022-11-15T07:17:25;100721.41;;;5.00;100.00
1736;BME280;865;53.672;10.250;2022-11-15T07:19:52;100727.44;;;4.95;100.00
1736;BME280;865;53.672;10.250;2022-11-15T07:22:18;100726.56;;;4.99;100.00
1736;BME280;865;53.672;10.250;2022-11-15T07:24:44;100720.56;;;5.01;100.00
1736;BME280;865;53.672;10.250;2022-11-15T07:27:11;100746.44;;;5.11;100.00
1736;BME280;865;53.672;10.250;2022-11-15T07:29:37;100737.78;;;5.06;100.00
1736;BME280;865;53.672;10.250;2022-11-15T07:32:04;100744.72;;;5.13;100.00
1736;BME280;865;53.672;10.250;2022-11-15T07:34:30;100741.28;;;5.23;100.00
1736;BME280;865;53.672;10.250;2022-11-15T07:36:56;100739.59;;;5.27;100.00
1736;BME280;865;53.672;10.250;2022-11-15T07:39:23;100744.75;;;5.22;100.00
1736;BME280;865;53.672;10.250;2022-11-15T07:41:49;100749.94;;;5.33;100.00
1736;BME280;865;53.672;10.250;2022-11-15T07:44:35;100748.19;;;5.29;100.00
1736;BME280;865;53.672;10.250;2022-11-15T07:47:01;100751.66;;;5.34;100.00
1736;BME280;865;53.672;10.250;2022-11-15T07:49:28;100743.91;;;5.41;100.00
1736;BME280;865;53.672;10.250;2022-11-15T07:51:54;100748.22;;;5.42;100.00
1736;BME280;865;53.672;10.250;2022-11-15T07:54:20;100739.63;;;5.48;100.00
1736;BME280;865;53.672;10.250;2022-11-15T07:56:47;100747.38;;;5.57;100.00
1736;BME280;865;53.672;10.250;2022-11-15T07:59:13;100745.66;;;5.64;100.00
1736;BME280;865;53.672;10.250;2022-11-15T08:01:39;100744.78;;;5.66;100.00
1736;BME280;865;53.672;10.250;2022-11-15T08:04:06;100733.59;;;5.54;100.00
1736;BME280;865;53.672;10.250;2022-11-15T08:06:32;100738.75;;;5.64;100.00
1736;BME280;865;53.672;10.250;2022-11-15T08:08:58;100740.50;;;5.56;100.00
1736;BME280;865;53.672;10.250;2022-11-15T08:11:25;100734.44;;;5.71;100.00
1736;BME280;865;53.672;10.250;2022-11-15T08:13:51;100736.16;;;5.72;100.00
1736;BME280;865;53.672;10.250;2022-11-15T08:16:18;100729.28;;;5.77;100.00
1736;BME280;865;53.672;10.250;2022-11-15T08:18:44;100731.00;;;5.66;100.00
1736;BME280;865;53.672;10.250;2022-11-15T08:21:13;100736.16;;;5.72;100.00
1736;BME280;865;53.672;10.250;2022-11-15T08:23:43;100739.63;;;5.74;100.00
1736;BME280;865;53.672;10.250;2022-11-15T08:26:10;100734.47;;;5.74;100.00
1736;BME280;865;53.672;10.250;2022-11-15T08:28:37;100736.16;;;5.84;100.00
1736;BME280;865;53.672;10.250;2022-11-15T08:31:04;100731.00;;;5.78;100.00
1736;BME280;865;53.672;10.250;2022-11-15T08:33:31;100729.25;;;5.92;100.00
1736;BME280;865;53.672;10.250;2022-11-15T08:36:00;100730.97;;;5.90;100.00
1736;BME280;865;53.672;10.250;2022-11-15T08:38:26;100733.59;;;5.98;100.00
1736;BME280;865;53.672;10.250;2022-11-15T08:41:01;100736.16;;;6.06;100.00
1736;BME280;865;53.672;10.250;2022-11-15T08:43:27;100737.06;;;5.99;100.00
1736;BME280;865;53.672;10.250;2022-11-15T08:45:58;100733.59;;;6.03;100.00
1736;BME280;865;53.672;10.250;2022-11-15T08:48:24;100742.22;;;6.11;100.00
1736;BME280;865;53.672;10.250;2022-11-15T08:50:54;100734.44;;;6.06;100.00
1736;BME280;865;53.672;10.250;2022-11-15T08:53:21;100735.31;;;6.04;100.00
1736;BME280;865;53.672;10.250;2022-11-15T08:55:48;100726.66;;;6.06;100.00
1736;BME280;865;53.672;10.250;2022-11-15T08:58:14;100724.09;;;6.11;100.00
1736;BME280;865;53.672;10.250;2022-11-15T09:00:41;100724.97;;;6.10;100.00
1736;BME280;865;53.672;10.250;2022-11-15T09:03:07;100738.75;;;6.18;100.00
1736;BME280;865;53.672;10.250;2022-11-15T09:05:36;100726.66;;;6.22;100.00
1736;BME280;865;53.672;10.250;2022-11-15T09:08:03;100731.84;;;6.15;100.00
1736;BME280;865;53.672;10.250;2022-11-15T09:10:49;100736.16;;;6.09;100.00
1736;BME280;865;53.672;10.250;2022-11-15T09:13:16;100731.84;;;6.15;100.00
1736;BME280;865;53.672;10.250;2022-11-15T09:15:43;100724.06;;;6.20;100.00
1736;BME280;865;53.672;10.250;2022-11-15T09:18:09;100720.59;;;6.27;100.00
1736;BME280;865;53.672;10.250;2022-11-15T09:20:36;100714.53;;;6.30;100.00
1736;BME280;865;53.672;10.250;2022-11-15T09:23:03;100720.56;;;6.33;100.00
1736;BME280;865;53.672;10.250;2022-11-15T09:25:30;100727.44;;;6.48;100.00
1736;BME280;865;53.672;10.250;2022-11-15T09:27:56;100730.88;;;6.50;100.00
1736;BME280;865;53.672;10.250;2022-11-15T09:30:24;100725.72;;;6.55;100.00
1736;BME280;865;53.672;10.250;2022-11-15T09:32:51;100730.00;;;6.59;100.00
1736;BME280;865;53.672;10.250;2022-11-15T09:35:17;100729.13;;;6.61;100.00
1736;BME280;865;53.672;10.250;2022-11-15T09:37:44;100729.09;;;6.66;100.00
1736;BME280;865;53.672;10.250;2022-11-15T09:40:13;100737.75;;;6.67;100.00
1736;BME280;865;53.672;10.250;2022-11-15T09:42:52;100732.56;;;6.70;100.00
1736;BME280;865;53.672;10.250;2022-11-15T09:45:45;100727.31;;;6.77;100.00
1736;BME280;865;53.672;10.250;2022-11-15T09:51:20;100723.00;;;6.82;100.00
1736;BME280;865;53.672;10.250;2022-11-15T09:53:54;100722.09;;;6.91;100.00
1736;BME280;865;53.672;10.250;2022-11-15T09:56:43;100722.09;;;6.91;100.00
1736;BME280;865;53.672;10.250;2022-11-15T10:04:32;100722.94;;;6.93;100.00
1736;BME280;865;53.672;10.250;2022-11-15T10:12:49;100716.84;;;7.05;100.00
1736;BME280;865;53.672;10.250;2022-11-15T10:15:17;100714.19;;;7.14;100.00
1736;BME280;865;53.672;10.250;2022-11-15T10:20:26;100711.53;;;7.22;100.00
1736;BME280;865;53.672;10.250;2022-11-15T10:22:56;100708.91;;;7.29;100.00
1736;BME280;865;53.672;10.250;2022-11-15T10:25:26;100705.47;;;7.24;100.00
1736;BME280;865;53.672;10.250;2022-11-15T10:27:59;100705.41;;;7.34;100.00
1736;BME280;865;53.672;10.250;2022-11-15T10:30:41;100697.59;;;7.34;100.00
1736;BME280;865;53.672;10.250;2022-11-15T10:33:37;100701.81;;;7.51;100.00
1736;BME280;865;53.672;10.250;2022-11-15T10:46:40;100681.44;;;8.03;100.00
1736;BME280;865;53.672;10.250;2022-11-15T10:49:23;100671.94;;;8.02;100.00
1736;BME280;865;53.672;10.250;2022-11-15T10:51:54;100664.06;;;8.08;100.00
1736;BME280;865;53.672;10.250;2022-11-15T10:54:25;100658.84;;;8.12;100.00
1736;BME280;865;53.672;10.250;2022-11-15T10:56:55;100664.81;;;8.19;100.00
1736;BME280;865;53.672;10.250;2022-11-15T10:59:32;100658.75;;;8.18;100.00
1736;BME280;865;53.672;10.250;2022-11-15T11:04:52;100660.38;;;8.30;100.00
1736;BME280;865;53.672;10.250;2022-11-15T11:07:31;100661.22;;;8.29;100.00
1736;BME280;865;53.672;10.250;2022-11-15T11:12:32;100659.69;;;8.11;100.00
1736;BME280;865;53.672;10.250;2022-11-15T11:15:00;100645.00;;;8.10;100.00
1736;BME280;865;53.672;10.250;2022-11-15T11:17:36;100656.31;;;8.05;100.00
1736;BME280;865;53.672;10.250;2022-11-15T11:20:20;100651.03;;;8.11;100.00
1736;BME280;865;53.672;10.250;2022-11-15T11:26:32;100649.00;;;8.40;100.00
1736;BME280;865;53.672;10.250;2022-11-15T11:29:12;100643.69;;;8.50;100.00
1736;BME280;865;53.672;10.250;2022-11-15T11:45:42;100627.75;;;8.74;100.00
1736;BME280;865;53.672;10.250;2022-11-15T11:48:14;100629.31;;;8.86;100.00
1736;BME280;865;53.672;10.250;2022-11-15T11:50:45;100623.28;;;8.84;100.00
1736;BME280;865;53.672;10.250;2022-11-15T11:53:29;100618.09;;;8.82;100.00
1736;BME280;865;53.672;10.250;2022-11-15T11:56:01;100612.84;;;8.87;100.00
1736;BME280;865;53.672;10.250;2022-11-15T11:58:38;100609.28;;;8.93;100.00
1736;BME280;865;53.672;10.250;2022-11-15T12:01:35;100598.78;;;8.97;100.00
1736;BME280;865;53.672;10.250;2022-11-15T12:04:30;100598.00;;;8.94;100.00
1736;BME280;865;53.672;10.250;2022-11-15T12:07:08;100604.84;;;8.98;100.00
1736;BME280;865;53.672;10.250;2022-11-15T12:15:04;100608.91;;;9.17;100.00
1736;BME280;865;53.672;10.250;2022-11-15T12:17:39;100603.69;;;9.17;100.00
1736;BME280;865;53.672;10.250;2022-11-15T12:20:19;100598.44;;;9.19;100.00
1736;BME280;865;53.672;10.250;2022-11-15T12:22:52;100601.94;;;9.18;100.00
1736;BME280;865;53.672;10.250;2022-11-15T12:27:57;100594.09;;;9.21;100.00
1736;BME280;865;53.672;10.250;2022-11-15T12:33:30;100587.13;;;9.23;100.00
1736;BME280;865;53.672;10.250;2022-11-15T12:39:10;100582.50;;;9.40;100.00
1736;BME280;865;53.672;10.250;2022-11-15T13:00:05;100562.91;;;9.66;100.00
1736;BME280;865;53.672;10.250;2022-11-15T13:03:17;100553.47;;;9.60;100.00
1736;BME280;865;53.672;10.250;2022-11-15T13:08:40;100548.09;;;9.69;100.00
1736;BME280;865;53.672;10.250;2022-11-15T13:11:43;100553.22;;;9.72;100.00
1736;BME280;865;53.672;10.250;2022-11-15T13:14:38;100553.22;;;9.72;100.00
1736;BME280;865;53.672;10.250;2022-11-15T13:17:24;100554.00;;;9.79;100.00
1736;BME280;865;53.672;10.250;2022-11-15T13:22:38;100541.81;;;9.79;100.00
1736;BME280;865;53.672;10.250;2022-11-15T13:30:49;100532.91;;;9.91;100.00
1736;BME280;865;53.672;10.250;2022-11-15T13:33:24;100523.47;;;9.86;100.00
1736;BME280;865;53.672;10.250;2022-11-15T13:35:59;100522.63;;;9.85;100.00
1736;BME280;865;53.672;10.250;2022-11-15T13:38:32;100523.53;;;9.82;100.00
1736;BME280;865;53.672;10.250;2022-11-15T13:41:20;100519.22;;;9.81;100.00
1736;BME280;865;53.672;10.250;2022-11-15T13:43:48;100511.47;;;9.77;100.00
1736;BME280;865;53.672;10.250;2022-11-15T13:46:20;100515.72;;;9.81;100.00
1736;BME280;865;53.672;10.250;2022-11-15T13:48:52;100515.72;;;9.81;100.00
1736;BME280;865;53.672;10.250;2022-11-15T13:51:27;100507.97;;;9.79;100.00
1736;BME280;865;53.672;10.250;2022-11-15T13:54:15;100501.78;;;9.85;100.00
1736;BME280;865;53.672;10.250;2022-11-15T13:56:49;100507.06;;;9.80;100.00
1736;BME280;865;53.672;10.250;2022-11-15T13:59:24;100502.63;;;9.84;100.00
1736;BME280;865;53.672;10.250;2022-11-15T14:01:53;100503.53;;;9.85;100.00
1736;BME280;865;53.672;10.250;2022-11-15T14:04:22;100499.91;;;9.90;100.00
1736;BME280;865;53.672;10.250;2022-11-15T14:06:53;100498.13;;;9.92;100.00
1736;BME280;865;53.672;10.250;2022-11-15T14:09:35;100493.72;;;9.96;100.00
1736;BME280;865;53.672;10.250;2022-11-15T14:14:52;100501.44;;;10.00;100.00
1736;BME280;865;53.672;10.250;2022-11-15T14:17:32;100498.06;;;9.95;100.00
1736;BME280;865;53.672;10.250;2022-11-15T14:19:59;100495.44;;;9.97;100.00
1736;BME280;865;53.672;10.250;2022-11-15T14:22:27;100495.47;;;9.95;100.00
1736;BME280;865;53.672;10.250;2022-11-15T14:27:39;100491.94;;;9.98;100.00
1736;BME280;865;53.672;10.250;2022-11-15T14:30:13;100490.25;;;9.95;100.00
1736;BME280;865;53.672;10.250;2022-11-15T14:32:45;100486.78;;;9.95;100.00
1736;BME280;865;53.672;10.250;2022-11-15T14:35:18;100478.94;;;9.96;100.00
1736;BME280;865;53.672;10.250;2022-11-15T14:37:46;100483.22;;;9.99;100.00
1736;BME280;865;53.672;10.250;2022-11-15T14:40:17;100481.44;;;10.01;100.00
1736;BME280;865;53.672;10.250;2022-11-15T14:42:45;100484.34;;;9.87;100.00
1736;BME280;865;53.672;10.250;2022-11-15T14:45:19;100487.91;;;9.83;100.00
1736;BME280;865;53.672;10.250;2022-11-15T14:47:46;100489.63;;;9.84;100.00
1736;BME280;865;53.672;10.250;2022-11-15T14:50:13;100495.81;;;9.78;100.00
1736;BME280;865;53.672;10.250;2022-11-15T14:52:41;100486.41;;;9.73;100.00
1736;BME280;865;53.672;10.250;2022-11-15T14:55:17;100489.94;;;9.69;100.00
1736;BME280;865;53.672;10.250;2022-11-15T14:57:45;100485.63;;;9.68;100.00
1736;BME280;865;53.672;10.250;2022-11-15T15:00:12;100490.00;;;9.66;100.00
1736;BME280;865;53.672;10.250;2022-11-15T15:02:40;100486.56;;;9.64;100.00
1736;BME280;865;53.672;10.250;2022-11-15T15:05:30;100484.91;;;9.59;100.00
1736;BME280;865;53.672;10.250;2022-11-15T15:07:57;100489.22;;;9.61;100.00
1736;BME280;865;53.672;10.250;2022-11-15T15:10:25;100484.97;;;9.56;100.00
1736;BME280;865;53.672;10.250;2022-11-15T15:13:12;100486.78;;;9.51;100.00
1736;BME280;865;53.672;10.250;2022-11-15T15:15:40;100484.19;;;9.51;100.00
1736;BME280;865;53.672;10.250;2022-11-15T15:18:07;100481.63;;;9.50;100.00
1736;BME280;865;53.672;10.250;2022-11-15T15:20:38;100483.53;;;9.42;100.00
1736;BME280;865;53.672;10.250;2022-11-15T15:23:13;100497.34;;;9.45;100.00
1736;BME280;865;53.672;10.250;2022-11-15T15:25:40;100493.94;;;9.43;100.00
1736;BME280;865;53.672;10.250;2022-11-15T15:28:08;100488.72;;;9.43;100.00
1736;BME280;865;53.672;10.250;2022-11-15T15:30:34;100484.47;;;9.38;100.00
1736;BME280;865;53.672;10.250;2022-11-15T15:33:00;100486.19;;;9.39;100.00
1736;BME280;865;53.672;10.250;2022-11-15T15:35:30;100487.19;;;9.31;100.00
1736;BME280;865;53.672;10.250;2022-11-15T15:37:57;100481.88;;;9.36;100.00
1736;BME280;865;53.672;10.250;2022-11-15T15:40:25;100479.50;;;9.25;100.00
1736;BME280;865;53.672;10.250;2022-11-15T15:42:52;100484.66;;;9.27;100.00